sensor_id;sensor_type;location;lat;lon;timestamp;temperature;humidity
3256;DHT22;1640;48.504;9.224;2024-03-23T00:55:17;9.60;22.70
3256;DHT22;1640;48.504;9.224;2024-03-23T00:57:43;9.70;25.00
3256;DHT22;1640;48.504;9.224;2024-03-23T01:00:12;9.70;23.30
3256;DHT22;1640;48.504;9.224;2024-03-23T01:02:38;9.90;28.50
3256;DHT22;1640;48.504;9.224;2024-03-23T01:05:06;10.00;29.20
3256;DHT22;1640;48.504;9.224;2024-03-23T01:07:32;10.00;31.40
3256;DHT22;1640;48.504;9.224;2024-03-23T01:10:00;10.20;33.40
3256;DHT22;1640;48.504;9.224;2024-03-23T01:12:27;10.20;37.10
3256;DHT22;1640;48.504;9.224;2024-03-23T01:14:55;10.30;38.40
3256;DHT22;1640;48.504;9.224;2024-03-23T01:17:21;10.30;39.20
3256;DHT22;1640;48.504;9.224;2024-03-23T01:19:49;10.30;40.00
3256;DHT22;1640;48.504;9.224;2024-03-23T01:22:15;10.30;39.00
3256;DHT22;1640;48.504;9.224;2024-03-23T01:24:42;10.30;36.60
3256;DHT22;1640;48.504;9.224;2024-03-23T01:27:09;10.30;37.60
3256;DHT22;1640;48.504;9.224;2024-03-23T01:29:38;10.20;37.60
3256;DHT22;1640;48.504;9.224;2024-03-23T01:32:05;10.20;35.30
3256;DHT22;1640;48.504;9.224;2024-03-23T01:34:32;10.20;32.30
3256;DHT22;1640;48.504;9.224;2024-03-23T01:36:59;10.30;28.40
3256;DHT22;1640;48.504;9.224;2024-03-23T01:39:27;10.40;27.40
3256;DHT22;1640;48.504;9.224;2024-03-23T01:41:53;10.50;29.10
3256;DHT22;1640;48.504;9.224;2024-03-23T01:44:20;10.60;29.70
3256;DHT22;1640;48.504;9.224;2024-03-23T01:46:48;10.70;31.40
3256;DHT22;1640;48.504;9.224;2024-03-23T01:49:16;10.70;34.20
3256;DHT22;1640;48.504;9.224;2024-03-23T01:51:42;10.80;36.40
3256;DHT22;1640;48.504;9.224;2024-03-23T01:54:10;10.90;39.00
3256;DHT22;1640;48.504;9.224;2024-03-23T01:56:36;10.90;40.60
3256;DHT22;1640;48.504;9.224;2024-03-23T01:59:04;10.90;39.40
3256;DHT22;1640;48.504;9.224;2024-03-23T02:01:31;10.80;39.20
3256;DHT22;1640;48.504;9.224;2024-03-23T02:04:00;10.70;36.50
3256;DHT22;1640;48.504;9.224;2024-03-23T02:06:27;10.70;33.30
3256;DHT22;1640;48.504;9.224;2024-03-23T02:08:55;10.70;29.80
3256;DHT22;1640;48.504;9.224;2024-03-23T02:11:21;10.80;31.40
3256;DHT22;1640;48.504;9.224;2024-03-23T02:13:49;10.90;34.60
3256;DHT22;1640;48.504;9.224;2024-03-23T02:16:15;11.00;34.90
3256;DHT22;1640;48.504;9.224;2024-03-23T02:18:43;11.10;34.70
3256;DHT22;1640;48.504;9.224;2024-03-23T02:21:11;11.20;37.50
3256;DHT22;1640;48.504;9.224;2024-03-23T02:23:39;11.20;36.40
3256;DHT22;1640;48.504;9.224;2024-03-23T02:26:06;11.30;33.90
3256;DHT22;1640;48.504;9.224;2024-03-23T02:28:33;11.40;28.20
3256;DHT22;1640;48.504;9.224;2024-03-23T02:31:00;11.50;27.60
3256;DHT22;1640;48.504;9.224;2024-03-23T02:33:27;11.70;30.30
3256;DHT22;1640;48.504;9.224;2024-03-23T02:35:56;11.80;30.80
3256;DHT22;1640;48.504;9.224;2024-03-23T02:38:23;11.90;29.70
3256;DHT22;1640;48.504;9.224;2024-03-23T02:40:51;12.10;31.10
3256;DHT22;1640;48.504;9.224;2024-03-23T02:43:19;12.30;34.90
3256;DHT22;1640;48.504;9.224;2024-03-23T02:45:45;12.60;40.60
3256;DHT22;1640;48.504;9.224;2024-03-23T02:48:13;12.80;44.50
3256;DHT22;1640;48.504;9.224;2024-03-23T02:50:39;13.00;48.50
3256;DHT22;1640;48.504;9.224;2024-03-23T02:53:07;13.30;53.10
3256;DHT22;1640;48.504;9.224;2024-03-23T02:55:33;13.50;55.80
3256;DHT22;1640;48.504;9.224;2024-03-23T02:58:02;13.60;57.10
3256;DHT22;1640;48.504;9.224;2024-03-23T03:00:28;13.60;57.50
3256;DHT22;1640;48.504;9.224;2024-03-23T03:02:56;13.60;58.40
3256;DHT22;1640;48.504;9.224;2024-03-23T03:05:22;13.40;58.60
3256;DHT22;1640;48.504;9.224;2024-03-23T03:07:51;13.20;58.60
3256;DHT22;1640;48.504;9.224;2024-03-23T03:10:17;13.00;57.80
3256;DHT22;1640;48.504;9.224;2024-03-23T03:12:44;12.80;57.50
3256;DHT22;1640;48.504;9.224;2024-03-23T03:15:13;12.60;56.30
3256;DHT22;1640;48.504;9.224;2024-03-23T03:17:40;12.40;52.10
3256;DHT22;1640;48.504;9.224;2024-03-23T03:20:08;12.10;47.60
3256;DHT22;1640;48.504;9.224;2024-03-23T03:22:39;12.00;44.70
3256;DHT22;1640;48.504;9.224;2024-03-23T03:25:06;11.80;41.70
3256;DHT22;1640;48.504;9.224;2024-03-23T03:27:34;11.80;39.80
3256;DHT22;1640;48.504;9.224;2024-03-23T03:30:00;11.80;38.50
3256;DHT22;1640;48.504;9.224;2024-03-23T03:32:30;11.80;38.70
3256;DHT22;1640;48.504;9.224;2024-03-23T03:34:56;11.80;38.30
3256;DHT22;1640;48.504;9.224;2024-03-23T03:37:24;11.90;38.30
3256;DHT22;1640;48.504;9.224;2024-03-23T03:39:50;12.00;39.80
3256;DHT22;1640;48.504;9.224;2024-03-23T03:42:18;12.00;40.20
3256;DHT22;1640;48.504;9.224;2024-03-23T03:44:44;12.10;40.90
3256;DHT22;1640;48.504;9.224;2024-03-23T03:47:11;12.00;39.20
3256;DHT22;1640;48.504;9.224;2024-03-23T03:49:39;12.10;40.20
3256;DHT22;1640;48.504;9.224;2024-03-23T03:52:06;12.00;39.80
3256;DHT22;1640;48.504;9.224;2024-03-23T03:54:33;12.10;39.40
3256;DHT22;1640;48.504;9.224;2024-03-23T03:57:00;12.10;39.90
3256;DHT22;1640;48.504;9.224;2024-03-23T03:59:28;12.20;40.90
3256;DHT22;1640;48.504;9.224;2024-03-23T04:01:55;12.20;40.70
3256;DHT22;1640;48.504;9.224;2024-03-23T04:04:21;12.30;42.30
3256;DHT22;1640;48.504;9.224;2024-03-23T04:06:58;12.30;41.90
3256;DHT22;1640;48.504;9.224;2024-03-23T04:09:25;12.30;41.90
3256;DHT22;1640;48.504;9.224;2024-03-23T04:11:52;12.20;40.70
3256;DHT22;1640;48.504;9.224;2024-03-23T04:14:18;12.30;40.60
3256;DHT22;1640;48.504;9.224;2024-03-23T04:16:46;12.40;41.10
3256;DHT22;1640;48.504;9.224;2024-03-23T04:19:12;12.40;41.70
3256;DHT22;1640;48.504;9.224;2024-03-23T04:21:41;12.40;42.50
3256;DHT22;1640;48.504;9.224;2024-03-23T04:24:08;12.40;42.10
3256;DHT22;1640;48.504;9.224;2024-03-23T04:26:41;12.30;41.50
3256;DHT22;1640;48.504;9.224;2024-03-23T04:29:07;12.30;44.00
3256;DHT22;1640;48.504;9.224;2024-03-23T04:31:35;12.30;44.40
3256;DHT22;1640;48.504;9.224;2024-03-23T04:34:01;12.40;45.70
3256;DHT22;1640;48.504;9.224;2024-03-23T04:36:29;12.40;47.10
3256;DHT22;1640;48.504;9.224;2024-03-23T04:38:56;12.40;49.90
3256;DHT22;1640;48.504;9.224;2024-03-23T04:41:25;12.50;51.60
3256;DHT22;1640;48.504;9.224;2024-03-23T04:43:52;12.50;52.90
3256;DHT22;1640;48.504;9.224;2024-03-23T04:46:20;12.50;53.50
3256;DHT22;1640;48.504;9.224;2024-03-23T04:48:47;12.50;53.30
3256;DHT22;1640;48.504;9.224;2024-03-23T04:51:20;12.60;53.70
3256;DHT22;1640;48.504;9.224;2024-03-23T04:53:48;12.60;55.00
3256;DHT22;1640;48.504;9.224;2024-03-23T04:56:16;12.70;58.40
3256;DHT22;1640;48.504;9.224;2024-03-23T04:58:45;12.80;58.80
3256;DHT22;1640;48.504;9.224;2024-03-23T05:01:13;12.80;60.30
3256;DHT22;1640;48.504;9.224;2024-03-23T05:03:40;12.90;63.00
3256;DHT22;1640;48.504;9.224;2024-03-23T05:06:07;13.00;64.60
3256;DHT22;1640;48.504;9.224;2024-03-23T05:08:34;13.10;65.60
3256;DHT22;1640;48.504;9.224;2024-03-23T05:11:01;13.20;67.20
3256;DHT22;1640;48.504;9.224;2024-03-23T05:13:28;13.30;67.30
3256;DHT22;1640;48.504;9.224;2024-03-23T05:15:56;13.40;67.60
3256;DHT22;1640;48.504;9.224;2024-03-23T05:18:23;13.40;67.50
3256;DHT22;1640;48.504;9.224;2024-03-23T05:20:56;13.40;67.90
3256;DHT22;1640;48.504;9.224;2024-03-23T05:23:23;13.40;67.20
3256;DHT22;1640;48.504;9.224;2024-03-23T05:25:50;13.40;66.60
3256;DHT22;1640;48.504;9.224;2024-03-23T05:28:17;13.30;65.60
3256;DHT22;1640;48.504;9.224;2024-03-23T05:30:44;13.10;62.70
3256;DHT22;1640;48.504;9.224;2024-03-23T05:33:12;12.80;56.50
3256;DHT22;1640;48.504;9.224;2024-03-23T05:35:39;12.40;39.80
3256;DHT22;1640;48.504;9.224;2024-03-23T05:38:06;12.00;22.30
3256;DHT22;1640;48.504;9.224;2024-03-23T05:40:33;11.60;99.90
3256;DHT22;1640;48.504;9.224;2024-03-23T05:43:03;11.20;99.90
3256;DHT22;1640;48.504;9.224;2024-03-23T05:45:30;10.80;99.90
3256;DHT22;1640;48.504;9.224;2024-03-23T05:47:57;10.50;99.90
3256;DHT22;1640;48.504;9.224;2024-03-23T05:50:25;10.20;99.90
3256;DHT22;1640;48.504;9.224;2024-03-23T05:52:52;10.00;99.90
3256;DHT22;1640;48.504;9.224;2024-03-23T05:55:18;9.80;99.90
3256;DHT22;1640;48.504;9.224;2024-03-23T05:57:46;9.60;99.90
3256;DHT22;1640;48.504;9.224;2024-03-23T06:00:13;9.50;99.90
3256;DHT22;1640;48.504;9.224;2024-03-23T06:02:43;9.40;99.90
3256;DHT22;1640;48.504;9.224;2024-03-23T06:05:10;9.30;99.90
3256;DHT22;1640;48.504;9.224;2024-03-23T06:07:39;9.30;99.90
3256;DHT22;1640;48.504;9.224;2024-03-23T06:10:06;9.20;99.90
3256;DHT22;1640;48.504;9.224;2024-03-23T06:12:34;9.20;99.90
3256;DHT22;1640;48.504;9.224;2024-03-23T06:15:00;9.20;99.90
3256;DHT22;1640;48.504;9.224;2024-03-23T06:17:28;9.20;99.90
3256;DHT22;1640;48.504;9.224;2024-03-23T06:19:54;9.20;99.90
3256;DHT22;1640;48.504;9.224;2024-03-23T06:22:21;9.20;99.90
3256;DHT22;1640;48.504;9.224;2024-03-23T06:24:49;9.20;99.90
3256;DHT22;1640;48.504;9.224;2024-03-23T06:27:17;9.20;99.90
3256;DHT22;1640;48.504;9.224;2024-03-23T06:29:43;9.20;99.90
3256;DHT22;1640;48.504;9.224;2024-03-23T06:32:11;9.10;99.90
3256;DHT22;1640;48.504;9.224;2024-03-23T06:34:37;9.10;99.90
3256;DHT22;1640;48.504;9.224;2024-03-23T06:37:04;9.10;99.90
3256;DHT22;1640;48.504;9.224;2024-03-23T06:39:31;9.10;99.90
3256;DHT22;1640;48.504;9.224;2024-03-23T06:42:00;9.00;99.90
3256;DHT22;1640;48.504;9.224;2024-03-23T06:44:26;9.00;99.90
3256;DHT22;1640;48.504;9.224;2024-03-23T06:46:53;8.90;99.90
3256;DHT22;1640;48.504;9.224;2024-03-23T06:49:20;8.80;99.90
3256;DHT22;1640;48.504;9.224;2024-03-23T06:51:47;8.60;99.90
3256;DHT22;1640;48.504;9.224;2024-03-23T06:54:14;8.50;99.90
3256;DHT22;1640;48.504;9.224;2024-03-23T06:56:41;8.50;99.90
3256;DHT22;1640;48.504;9.224;2024-03-23T06:59:09;8.40;99.90
3256;DHT22;1640;48.504;9.224;2024-03-23T07:01:36;8.30;99.90
3256;DHT22;1640;48.504;9.224;2024-03-23T07:04:03;8.30;99.90
3256;DHT22;1640;48.504;9.224;2024-03-23T07:06:31;8.30;99.90
3256;DHT22;1640;48.504;9.224;2024-03-23T07:08:57;8.20;99.90
3256;DHT22;1640;48.504;9.224;2024-03-23T07:11:25;8.30;99.90
3256;DHT22;1640;48.504;9.224;2024-03-23T07:13:52;8.30;99.90
3256;DHT22;1640;48.504;9.224;2024-03-23T07:16:22;8.20;99.90
3256;DHT22;1640;48.504;9.224;2024-03-23T07:18:50;8.30;99.90
3256;DHT22;1640;48.504;9.224;2024-03-23T07:21:17;8.30;99.90
3256;DHT22;1640;48.504;9.224;2024-03-23T07:23:44;8.40;99.90
3256;DHT22;1640;48.504;9.224;2024-03-23T07:26:12;8.40;99.90
3256;DHT22;1640;48.504;9.224;2024-03-23T07:28:38;8.40;99.90
3256;DHT22;1640;48.504;9.224;2024-03-23T07:31:10;8.50;99.90
3256;DHT22;1640;48.504;9.224;2024-03-23T07:33:42;8.60;99.90
3256;DHT22;1640;48.504;9.224;2024-03-23T07:36:10;8.70;99.90
3256;DHT22;1640;48.504;9.224;2024-03-23T07:38:36;8.70;99.90
3256;DHT22;1640;48.504;9.224;2024-03-23T07:41:04;8.80;99.90
3256;DHT22;1640;48.504;9.224;2024-03-23T07:43:32;8.80;99.90
3256;DHT22;1640;48.504;9.224;2024-03-23T07:45:59;8.80;99.90
3256;DHT22;1640;48.504;9.224;2024-03-23T07:48:28;8.90;99.90
3256;DHT22;1640;48.504;9.224;2024-03-23T07:51:00;8.90;99.90
3256;DHT22;1640;48.504;9.224;2024-03-23T07:53:28;8.90;99.90
3256;DHT22;1640;48.504;9.224;2024-03-23T07:55:56;8.90;99.90
3256;DHT22;1640;48.504;9.224;2024-03-23T07:58:24;8.90;99.90
3256;DHT22;1640;48.504;9.224;2024-03-23T08:00:50;8.90;99.90
3256;DHT22;1640;48.504;9.224;2024-03-23T08:03:18;9.00;99.90
3256;DHT22;1640;48.504;9.224;2024-03-23T08:05:45;9.00;99.90
3256;DHT22;1640;48.504;9.224;2024-03-23T08:08:14;9.20;99.90
3256;DHT22;1640;48.504;9.224;2024-03-23T08:10:50;9.20;99.90
3256;DHT22;1640;48.504;9.224;2024-03-23T08:13:18;9.30;99.90
3256;DHT22;1640;48.504;9.224;2024-03-23T08:15:45;9.30;99.90
3256;DHT22;1640;48.504;9.224;2024-03-23T08:18:13;9.30;99.90
3256;DHT22;1640;48.504;9.224;2024-03-23T08:20:39;9.20;99.90
3256;DHT22;1640;48.504;9.224;2024-03-23T08:23:07;9.00;99.90
3256;DHT22;1640;48.504;9.224;2024-03-23T08:25:36;8.70;99.90
3256;DHT22;1640;48.504;9.224;2024-03-23T08:28:03;8.50;99.90
3256;DHT22;1640;48.504;9.224;2024-03-23T08:30:30;8.50;99.90
3256;DHT22;1640;48.504;9.224;2024-03-23T08:32:58;8.40;99.90
3256;DHT22;1640;48.504;9.224;2024-03-23T08:35:25;8.40;99.90
3256;DHT22;1640;48.504;9.224;2024-03-23T08:37:52;8.70;99.90
3256;DHT22;1640;48.504;9.224;2024-03-23T08:40:19;8.70;17.90
3256;DHT22;1640;48.504;9.224;2024-03-23T08:42:47;8.70;23.20
3256;DHT22;1640;48.504;9.224;2024-03-23T08:45:14;8.60;34.60
3256;DHT22;1640;48.504;9.224;2024-03-23T08:47:41;8.70;18.90
3256;DHT22;1640;48.504;9.224;2024-03-23T08:50:08;8.90;39.80
3256;DHT22;1640;48.504;9.224;2024-03-23T08:52:36;9.10;47.00
3256;DHT22;1640;48.504;9.224;2024-03-23T08:55:03;9.00;45.60
3256;DHT22;1640;48.504;9.224;2024-03-23T08:57:30;9.00;54.80
3256;DHT22;1640;48.504;9.224;2024-03-23T08:59:58;9.00;48.30
3256;DHT22;1640;48.504;9.224;2024-03-23T09:02:25;9.10;62.00
3256;DHT22;1640;48.504;9.224;2024-03-23T09:04:52;9.00;61.10
3256;DHT22;1640;48.504;9.224;2024-03-23T09:07:19;8.90;66.20
3256;DHT22;1640;48.504;9.224;2024-03-23T09:09:45;8.90;65.30
3256;DHT22;1640;48.504;9.224;2024-03-23T09:12:13;9.10;63.30
3256;DHT22;1640;48.504;9.224;2024-03-23T09:14:39;9.30;63.30
3256;DHT22;1640;48.504;9.224;2024-03-23T09:17:08;9.40;63.60
3256;DHT22;1640;48.504;9.224;2024-03-23T09:19:35;9.50;63.20
3256;DHT22;1640;48.504;9.224;2024-03-23T09:22:03;9.50;68.00
3256;DHT22;1640;48.504;9.224;2024-03-23T09:24:29;9.40;59.50
3256;DHT22;1640;48.504;9.224;2024-03-23T09:26:58;9.20;70.50
3256;DHT22;1640;48.504;9.224;2024-03-23T09:29:24;9.10;71.10
3256;DHT22;1640;48.504;9.224;2024-03-23T09:31:51;9.00;70.60
3256;DHT22;1640;48.504;9.224;2024-03-23T09:34:19;8.90;69.50
3256;DHT22;1640;48.504;9.224;2024-03-23T09:36:47;9.10;69.80
3256;DHT22;1640;48.504;9.224;2024-03-23T09:39:13;9.00;70.80
3256;DHT22;1640;48.504;9.224;2024-03-23T09:41:41;8.90;69.00
3256;DHT22;1640;48.504;9.224;2024-03-23T09:44:08;8.80;68.90
3256;DHT22;1640;48.504;9.224;2024-03-23T09:46:35;8.90;62.30
3256;DHT22;1640;48.504;9.224;2024-03-23T09:49:02;9.00;68.30
3256;DHT22;1640;48.504;9.224;2024-03-23T09:51:32;8.80;71.50
3256;DHT22;1640;48.504;9.224;2024-03-23T09:53:58;8.80;68.30
3256;DHT22;1640;48.504;9.224;2024-03-23T09:56:26;8.90;71.50
3256;DHT22;1640;48.504;9.224;2024-03-23T09:59:00;8.90;70.90
3256;DHT22;1640;48.504;9.224;2024-03-23T10:01:29;9.20;68.80
3256;DHT22;1640;48.504;9.224;2024-03-23T10:03:56;9.40;59.20
3256;DHT22;1640;48.504;9.224;2024-03-23T10:06:24;9.50;63.70
3256;DHT22;1640;48.504;9.224;2024-03-23T10:08:52;9.60;66.70
3256;DHT22;1640;48.504;9.224;2024-03-23T10:11:20;9.90;69.60
3256;DHT22;1640;48.504;9.224;2024-03-23T10:13:47;10.30;72.30
3256;DHT22;1640;48.504;9.224;2024-03-23T10:16:22;10.20;72.80
3256;DHT22;1640;48.504;9.224;2024-03-23T10:18:49;10.30;72.60
3256;DHT22;1640;48.504;9.224;2024-03-23T10:21:18;10.20;74.50
3256;DHT22;1640;48.504;9.224;2024-03-23T10:23:44;10.10;75.10
3256;DHT22;1640;48.504;9.224;2024-03-23T10:26:16;9.50;73.60
3256;DHT22;1640;48.504;9.224;2024-03-23T10:28:55;9.40;72.10
3256;DHT22;1640;48.504;9.224;2024-03-23T10:31:27;9.50;69.60
3256;DHT22;1640;48.504;9.224;2024-03-23T10:33:55;9.50;69.60
3256;DHT22;1640;48.504;9.224;2024-03-23T10:36:23;9.60;66.50
3256;DHT22;1640;48.504;9.224;2024-03-23T10:38:51;9.60;69.20
3256;DHT22;1640;48.504;9.224;2024-03-23T10:41:20;9.60;72.50
3256;DHT22;1640;48.504;9.224;2024-03-23T10:43:47;9.80;75.10
3256;DHT22;1640;48.504;9.224;2024-03-23T10:46:15;9.90;76.10
3256;DHT22;1640;48.504;9.224;2024-03-23T10:48:41;10.20;76.10
3256;DHT22;1640;48.504;9.224;2024-03-23T10:51:10;10.10;74.20
3256;DHT22;1640;48.504;9.224;2024-03-23T10:53:37;10.20;74.10
3256;DHT22;1640;48.504;9.224;2024-03-23T10:56:05;10.20;73.80
3256;DHT22;1640;48.504;9.224;2024-03-23T10:58:37;10.30;73.40
3256;DHT22;1640;48.504;9.224;2024-03-23T11:01:05;10.40;72.90
3256;DHT22;1640;48.504;9.224;2024-03-23T11:03:35;10.30;72.20
3256;DHT22;1640;48.504;9.224;2024-03-23T11:06:04;10.10;72.10
3256;DHT22;1640;48.504;9.224;2024-03-23T11:11:16;8.20;36.60
3256;DHT22;1640;48.504;9.224;2024-03-23T11:13:45;6.60;36.60
3256;DHT22;1640;48.504;9.224;2024-03-23T11:16:16;6.20;36.60
3256;DHT22;1640;48.504;9.224;2024-03-23T11:18:43;6.20;36.60
3256;DHT22;1640;48.504;9.224;2024-03-23T11:24:21;6.40;36.60
3256;DHT22;1640;48.504;9.224;2024-03-23T11:26:49;6.50;36.60
3256;DHT22;1640;48.504;9.224;2024-03-23T11:29:17;6.70;36.60
3256;DHT22;1640;48.504;9.224;2024-03-23T11:31:48;6.80;36.60
3256;DHT22;1640;48.504;9.224;2024-03-23T11:34:15;7.00;36.60
3256;DHT22;1640;48.504;9.224;2024-03-23T11:36:43;7.10;36.60
3256;DHT22;1640;48.504;9.224;2024-03-23T11:39:13;7.10;99.90
3256;DHT22;1640;48.504;9.224;2024-03-23T11:41:48;7.30;99.90
3256;DHT22;1640;48.504;9.224;2024-03-23T11:44:17;7.40;99.90
3256;DHT22;1640;48.504;9.224;2024-03-23T11:46:46;7.60;4.90
3256;DHT22;1640;48.504;9.224;2024-03-23T11:49:22;7.70;22.50
3256;DHT22;1640;48.504;9.224;2024-03-23T11:51:51;7.60;42.60
3256;DHT22;1640;48.504;9.224;2024-03-23T11:54:20;7.70;34.70
3256;DHT22;1640;48.504;9.224;2024-03-23T11:56:55;7.60;29.40
3256;DHT22;1640;48.504;9.224;2024-03-23T11:59:33;7.70;33.00
3256;DHT22;1640;48.504;9.224;2024-03-23T12:02:00;7.90;29.70
3256;DHT22;1640;48.504;9.224;2024-03-23T12:04:27;7.90;36.60
3256;DHT22;1640;48.504;9.224;2024-03-23T12:07:11;7.70;42.50
3256;DHT22;1640;48.504;9.224;2024-03-23T12:09:39;7.50;43.30
3256;DHT22;1640;48.504;9.224;2024-03-23T12:12:10;7.50;32.30
3256;DHT22;1640;48.504;9.224;2024-03-23T12:14:38;7.50;25.70
3256;DHT22;1640;48.504;9.224;2024-03-23T12:17:12;7.40;35.00
3256;DHT22;1640;48.504;9.224;2024-03-23T12:19:40;7.30;44.00
3256;DHT22;1640;48.504;9.224;2024-03-23T12:22:08;7.40;28.80
3256;DHT22;1640;48.504;9.224;2024-03-23T12:24:35;7.50;40.20
3256;DHT22;1640;48.504;9.224;2024-03-23T12:27:02;7.50;35.40
3256;DHT22;1640;48.504;9.224;2024-03-23T12:29:29;7.50;30.90
3256;DHT22;1640;48.504;9.224;2024-03-23T12:32:00;7.50;34.20
3256;DHT22;1640;48.504;9.224;2024-03-23T12:34:27;7.40;36.40
3256;DHT22;1640;48.504;9.224;2024-03-23T12:36:54;7.00;32.20
3256;DHT22;1640;48.504;9.224;2024-03-23T12:39:21;7.00;25.60
3256;DHT22;1640;48.504;9.224;2024-03-23T12:41:48;7.00;23.10
3256;DHT22;1640;48.504;9.224;2024-03-23T12:44:15;7.10;21.30
3256;DHT22;1640;48.504;9.224;2024-03-23T12:46:43;7.20;26.80
3256;DHT22;1640;48.504;9.224;2024-03-23T12:49:11;7.20;22.60
3256;DHT22;1640;48.504;9.224;2024-03-23T12:51:38;7.40;16.80
3256;DHT22;1640;48.504;9.224;2024-03-23T12:54:05;7.60;18.40
3256;DHT22;1640;48.504;9.224;2024-03-23T12:56:32;7.60;20.90
3256;DHT22;1640;48.504;9.224;2024-03-23T12:58:59;7.60;30.70
3256;DHT22;1640;48.504;9.224;2024-03-23T13:01:26;7.70;33.70
3256;DHT22;1640;48.504;9.224;2024-03-23T13:03:53;7.70;26.30
3256;DHT22;1640;48.504;9.224;2024-03-23T13:06:22;8.00;27.70
3256;DHT22;1640;48.504;9.224;2024-03-23T13:08:48;8.20;42.10
3256;DHT22;1640;48.504;9.224;2024-03-23T13:11:16;8.20;45.20
3256;DHT22;1640;48.504;9.224;2024-03-23T13:13:44;8.50;46.30
3256;DHT22;1640;48.504;9.224;2024-03-23T13:16:11;8.90;57.10
3256;DHT22;1640;48.504;9.224;2024-03-23T13:18:38;8.90;61.40
3256;DHT22;1640;48.504;9.224;2024-03-23T13:21:06;9.00;59.50
3256;DHT22;1640;48.504;9.224;2024-03-23T13:23:33;9.00;54.30
3256;DHT22;1640;48.504;9.224;2024-03-23T13:26:02;9.20;59.00
3256;DHT22;1640;48.504;9.224;2024-03-23T13:28:29;9.40;61.30
3256;DHT22;1640;48.504;9.224;2024-03-23T13:30:57;9.40;63.60
3256;DHT22;1640;48.504;9.224;2024-03-23T13:33:24;9.40;56.70
3256;DHT22;1640;48.504;9.224;2024-03-23T13:35:52;9.60;64.60
3256;DHT22;1640;48.504;9.224;2024-03-23T13:38:19;9.60;67.90
3256;DHT22;1640;48.504;9.224;2024-03-23T13:40:52;9.90;71.90
3256;DHT22;1640;48.504;9.224;2024-03-23T13:43:19;9.90;71.20
3256;DHT22;1640;48.504;9.224;2024-03-23T13:45:47;10.20;72.60
3256;DHT22;1640;48.504;9.224;2024-03-23T13:48:14;10.50;73.40
3256;DHT22;1640;48.504;9.224;2024-03-23T13:50:42;10.50;74.40
3256;DHT22;1640;48.504;9.224;2024-03-23T13:53:08;10.70;74.90
3256;DHT22;1640;48.504;9.224;2024-03-23T13:55:36;10.70;75.40
3256;DHT22;1640;48.504;9.224;2024-03-23T13:58:04;10.50;75.20
3256;DHT22;1640;48.504;9.224;2024-03-23T14:00:31;10.00;74.90
3256;DHT22;1640;48.504;9.224;2024-03-23T14:02:58;9.80;74.10
3256;DHT22;1640;48.504;9.224;2024-03-23T14:05:26;9.60;69.00
3256;DHT22;1640;48.504;9.224;2024-03-23T14:07:53;9.70;65.50
3256;DHT22;1640;48.504;9.224;2024-03-23T14:10:20;9.60;65.50
3256;DHT22;1640;48.504;9.224;2024-03-23T14:12:47;9.30;67.90
3256;DHT22;1640;48.504;9.224;2024-03-23T14:15:15;9.30;68.80
3256;DHT22;1640;48.504;9.224;2024-03-23T14:17:42;9.30;73.50
3256;DHT22;1640;48.504;9.224;2024-03-23T14:20:10;9.20;75.50
3256;DHT22;1640;48.504;9.224;2024-03-23T14:22:37;9.20;73.20
3256;DHT22;1640;48.504;9.224;2024-03-23T14:25:07;9.30;75.10
3256;DHT22;1640;48.504;9.224;2024-03-23T14:27:34;8.90;74.90
3256;DHT22;1640;48.504;9.224;2024-03-23T14:30:04;8.80;73.90
3256;DHT22;1640;48.504;9.224;2024-03-23T14:32:32;8.90;72.10
3256;DHT22;1640;48.504;9.224;2024-03-23T14:35:01;8.90;74.20
3256;DHT22;1640;48.504;9.224;2024-03-23T14:37:27;8.70;75.20
3256;DHT22;1640;48.504;9.224;2024-03-23T14:39:55;8.60;75.80
3256;DHT22;1640;48.504;9.224;2024-03-23T14:42:22;8.50;76.10
3256;DHT22;1640;48.504;9.224;2024-03-23T14:44:50;8.50;75.50
3256;DHT22;1640;48.504;9.224;2024-03-23T14:47:17;8.60;75.10
3256;DHT22;1640;48.504;9.224;2024-03-23T14:49:46;8.50;75.50
3256;DHT22;1640;48.504;9.224;2024-03-23T14:52:13;8.50;75.20
3256;DHT22;1640;48.504;9.224;2024-03-23T14:54:40;8.50;75.40
3256;DHT22;1640;48.504;9.224;2024-03-23T14:57:07;8.70;72.80
3256;DHT22;1640;48.504;9.224;2024-03-23T14:59:35;8.80;72.90
3256;DHT22;1640;48.504;9.224;2024-03-23T15:02:01;8.80;74.60
3256;DHT22;1640;48.504;9.224;2024-03-23T15:04:29;8.70;73.20
3256;DHT22;1640;48.504;9.224;2024-03-23T15:06:56;8.60;75.10
3256;DHT22;1640;48.504;9.224;2024-03-23T15:09:24;8.20;71.30
3256;DHT22;1640;48.504;9.224;2024-03-23T15:11:50;6.90;30.30
3256;DHT22;1640;48.504;9.224;2024-03-23T15:14:21;6.30;99.90
3256;DHT22;1640;48.504;9.224;2024-03-23T15:16:47;6.10;99.90
3256;DHT22;1640;48.504;9.224;2024-03-23T15:19:15;6.20;99.90
3256;DHT22;1640;48.504;9.224;2024-03-23T15:21:43;6.40;99.90
3256;DHT22;1640;48.504;9.224;2024-03-23T15:24:12;6.50;99.90
3256;DHT22;1640;48.504;9.224;2024-03-23T15:26:38;6.50;99.90
3256;DHT22;1640;48.504;9.224;2024-03-23T15:29:06;6.60;99.90
3256;DHT22;1640;48.504;9.224;2024-03-23T15:31:38;6.70;99.90
3256;DHT22;1640;48.504;9.224;2024-03-23T15:34:05;6.80;6.10
3256;DHT22;1640;48.504;9.224;2024-03-23T15:36:36;6.80;8.80
3256;DHT22;1640;48.504;9.224;2024-03-23T15:39:04;6.90;9.70
3256;DHT22;1640;48.504;9.224;2024-03-23T15:41:32;6.90;12.10
3256;DHT22;1640;48.504;9.224;2024-03-23T15:44:01;6.90;4.80
3256;DHT22;1640;48.504;9.224;2024-03-23T15:46:28;6.90;3.10
3256;DHT22;1640;48.504;9.224;2024-03-23T15:48:55;7.10;99.90
3256;DHT22;1640;48.504;9.224;2024-03-23T15:51:21;7.40;99.90
3256;DHT22;1640;48.504;9.224;2024-03-23T15:53:49;7.70;28.90
3256;DHT22;1640;48.504;9.224;2024-03-23T15:56:18;7.90;10.50
3256;DHT22;1640;48.504;9.224;2024-03-23T15:58:47;8.10;20.00
3256;DHT22;1640;48.504;9.224;2024-03-23T16:01:13;8.10;23.00
3256;DHT22;1640;48.504;9.224;2024-03-23T16:03:41;8.20;37.20
3256;DHT22;1640;48.504;9.224;2024-03-23T16:06:08;8.30;46.30
3256;DHT22;1640;48.504;9.224;2024-03-23T16:08:35;8.30;57.70
3256;DHT22;1640;48.504;9.224;2024-03-23T16:11:03;8.40;59.70
3256;DHT22;1640;48.504;9.224;2024-03-23T16:13:31;8.60;60.10
3256;DHT22;1640;48.504;9.224;2024-03-23T16:16:01;8.50;61.30
3256;DHT22;1640;48.504;9.224;2024-03-23T16:18:33;8.20;61.60
3256;DHT22;1640;48.504;9.224;2024-03-23T16:21:01;7.90;53.30
3256;DHT22;1640;48.504;9.224;2024-03-23T16:23:29;7.80;56.10
3256;DHT22;1640;48.504;9.224;2024-03-23T16:25:57;7.60;55.10
3256;DHT22;1640;48.504;9.224;2024-03-23T16:28:25;7.50;52.50
3256;DHT22;1640;48.504;9.224;2024-03-23T16:30:56;7.50;52.50
3256;DHT22;1640;48.504;9.224;2024-03-23T16:33:25;7.40;51.80
3256;DHT22;1640;48.504;9.224;2024-03-23T16:35:56;7.30;49.00
3256;DHT22;1640;48.504;9.224;2024-03-23T16:38:23;7.30;45.10
3256;DHT22;1640;48.504;9.224;2024-03-23T16:40:54;7.30;46.30
3256;DHT22;1640;48.504;9.224;2024-03-23T16:43:21;7.30;44.00
3256;DHT22;1640;48.504;9.224;2024-03-23T16:45:53;7.40;34.50
3256;DHT22;1640;48.504;9.224;2024-03-23T16:48:21;7.80;41.30
3256;DHT22;1640;48.504;9.224;2024-03-23T16:50:49;8.30;31.90
3256;DHT22;1640;48.504;9.224;2024-03-23T16:53:16;8.40;43.80
3256;DHT22;1640;48.504;9.224;2024-03-23T16:55:43;8.00;52.70
3256;DHT22;1640;48.504;9.224;2024-03-23T16:58:11;7.80;54.20
3256;DHT22;1640;48.504;9.224;2024-03-23T17:00:38;7.80;57.30
3256;DHT22;1640;48.504;9.224;2024-03-23T17:03:05;7.90;56.30
3256;DHT22;1640;48.504;9.224;2024-03-23T17:05:38;7.90;57.50
3256;DHT22;1640;48.504;9.224;2024-03-23T17:08:07;7.80;63.00
3256;DHT22;1640;48.504;9.224;2024-03-23T17:10:33;7.70;60.90
3256;DHT22;1640;48.504;9.224;2024-03-23T17:13:01;7.60;59.50
3256;DHT22;1640;48.504;9.224;2024-03-23T17:15:28;7.20;56.70